Time;durP1;ratioP1;P1;durP2;ratioP2;P2;SDS_P1;SDS_P2;PMS_P1;PMS_P2;Temp;Humidity;BMP_temperature;BMP_pressure;BME280_temperature;BME280_humidity;BME280_pressure;Samples;Min_cycle;Max_cycle;Signal;HPM_P1;HPM_P2
2022/06/27 00:00:52;;;;;;;3.38;2.05;;;;;;;20.27;56.81;101446.06;5103891;28;20046;-67
2022/06/27 00:03:20;;;;;;;4.32;2.35;;;;;;;20.29;56.69;101454.78;5096476;28;20051;-67
2022/06/27 00:05:48;;;;;;;4.18;2.08;;;;;;;20.29;56.82;101441.16;5104163;28;20056;-67
2022/06/27 00:08:16;;;;;;;5.03;2.70;;;;;;;20.28;56.86;101444.97;5098067;28;20075;-67
2022/06/27 00:10:43;;;;;;;5.85;2.45;;;;;;;20.27;56.89;101446.06;5100268;28;20097;-67
2022/06/27 00:13:13;;;;;;;5.03;2.38;;;;;;;20.26;56.99;101439.78;5103440;28;20055;-67
2022/06/27 00:15:40;;;;;;;4.00;2.67;;;;;;;20.25;57.02;101442.78;5100382;28;20044;-67
2022/06/27 00:18:08;;;;;;;4.65;2.67;;;;;;;20.24;57.14;101447.41;5102010;28;20082;-67
2022/06/27 00:20:36;;;;;;;4.63;2.28;;;;;;;20.23;57.07;101451.25;5104216;28;20526;-68
2022/06/27 00:23:04;;;;;;;4.07;2.05;;;;;;;20.23;57.04;101475.81;5090575;28;21435;-68
2022/06/27 00:25:32;;;;;;;5.00;2.65;;;;;;;20.22;56.95;101471.44;5104089;28;20043;-68
2022/06/27 00:28:00;;;;;;;4.78;2.60;;;;;;;20.22;57.16;101478.81;5100102;28;20047;-70
2022/06/27 00:30:29;;;;;;;3.97;2.70;;;;;;;20.22;57.04;101487.00;5103849;28;20071;-67
2022/06/27 00:32:57;;;;;;;3.92;2.53;;;;;;;20.19;57.06;101490.25;5097660;28;20048;-68
2022/06/27 00:35:25;;;;;;;4.75;2.47;;;;;;;20.20;57.24;101478.25;5103989;28;20082;-68
2022/06/27 00:37:52;;;;;;;5.45;2.75;;;;;;;20.19;57.05;101473.88;5095172;28;20086;-68
2022/06/27 00:40:20;;;;;;;4.13;2.65;;;;;;;20.18;57.34;101477.72;5103733;28;20070;-68
2022/06/27 00:42:48;;;;;;;3.83;2.58;;;;;;;20.17;57.24;101479.63;5096790;28;20063;-67
2022/06/27 00:45:16;;;;;;;3.42;2.33;;;;;;;20.18;57.32;101481.25;5103653;28;20059;-67
2022/06/27 00:47:45;;;;;;;4.93;2.90;;;;;;;20.17;57.19;101478.78;5101017;28;20140;-67
2022/06/27 00:50:13;;;;;;;4.57;2.60;;;;;;;20.08;57.34;101468.41;5102966;28;20064;-67
2022/06/27 00:52:41;;;;;;;4.80;2.72;;;;;;;20.16;57.27;101494.34;5103133;28;20093;-67
2022/06/27 00:55:10;;;;;;;5.97;2.95;;;;;;;20.15;57.43;101495.44;5098101;28;20110;-67
2022/06/27 00:57:38;;;;;;;12.23;3.15;;;;;;;20.14;57.31;101491.06;5102068;28;20048;-67
2022/06/27 01:00:08;;;;;;;4.93;3.03;;;;;;;20.14;57.33;101485.63;5103953;28;20052;-67
2022/06/27 01:02:36;;;;;;;4.78;2.75;;;;;;;20.13;57.53;101475.78;5094956;28;20047;-67
2022/06/27 01:05:07;;;;;;;5.15;2.80;;;;;;;20.13;57.44;101484.78;5098435;28;20086;-67
2022/06/27 01:07:35;;;;;;;5.05;2.60;;;;;;;20.12;57.61;101483.16;5093420;28;20047;-67
2022/06/27 01:10:03;;;;;;;6.40;2.70;;;;;;;20.12;57.48;101487.78;5103379;28;20051;-67
2022/06/27 01:12:32;;;;;;;8.35;2.63;;;;;;;20.11;57.56;101491.63;5101192;28;20051;-67
2022/06/27 01:15:01;;;;;;;7.20;2.70;;;;;;;20.10;57.43;101490.78;5101007;28;20653;-68
2022/06/27 01:17:29;;;;;;;5.00;2.75;;;;;;;20.10;57.66;101489.97;5099692;28;20040;-67
2022/06/27 01:19:57;;;;;;;5.28;3.10;;;;;;;20.08;57.61;101497.63;5096670;28;20063;-67
2022/06/27 01:22:26;;;;;;;4.88;2.50;;;;;;;19.95;57.55;101477.13;5092321;28;20102;-67
2022/06/27 01:24:54;;;;;;;6.88;3.97;;;;;;;20.05;57.62;101495.41;5090362;28;20497;-67
2022/06/27 01:27:22;;;;;;;5.82;3.20;;;;;;;20.05;57.64;101490.78;5095278;28;20124;-67
2022/06/27 01:29:50;;;;;;;7.28;3.17;;;;;;;20.04;57.83;101482.88;5101916;28;20044;-67
2022/06/27 01:32:18;;;;;;;3.67;3.15;;;;;;;20.02;57.72;101479.59;5095806;28;20100;-67
2022/06/27 01:34:46;;;;;;;5.30;3.40;;;;;;;20.02;58.09;101471.41;5101129;28;20048;-67
2022/06/27 01:37:13;;;;;;;6.38;2.80;;;;;;;20.00;57.99;101455.28;5096506;28;20407;-67
2022/06/27 01:39:42;;;;;;;5.72;3.30;;;;;;;19.99;57.95;101452.84;5101334;28;20087;-67
2022/06/27 01:42:10;;;;;;;5.78;3.40;;;;;;;19.97;58.04;101450.38;5100609;28;20103;-67
2022/06/27 01:44:38;;;;;;;5.95;3.70;;;;;;;19.98;57.87;101449.28;5098076;28;20059;-67
2022/06/27 01:47:08;;;;;;;5.60;3.05;;;;;;;19.97;57.88;101446.84;5094484;28;20066;-67
2022/06/27 01:49:38;;;;;;;4.68;3.03;;;;;;;19.93;57.92;101446.56;5102425;28;20055;-67
2022/06/27 01:52:08;;;;;;;4.82;3.40;;;;;;;19.96;57.96;101446.00;5102266;28;20139;-67
2022/06/27 01:54:36;;;;;;;4.97;3.10;;;;;;;19.95;57.73;101446.28;5094282;28;20078;-67
2022/06/27 01:57:07;;;;;;;6.18;3.33;;;;;;;19.94;57.80;101437.28;5100080;28;20055;-67
2022/06/27 01:59:36;;;;;;;4.80;3.50;;;;;;;19.92;58.21;101442.19;5102339;28;20124;-67
2022/06/27 02:02:05;;;;;;;6.05;3.55;;;;;;;19.93;58.02;101452.00;5101582;28;20060;-67
2022/06/27 02:04:34;;;;;;;5.18;3.42;;;;;;;19.93;58.16;101457.47;5095556;28;20063;-67
2022/06/27 02:07:05;;;;;;;4.82;3.22;;;;;;;19.92;57.93;101446.81;5097810;28;20044;-67
2022/06/27 02:09:32;;;;;;;5.80;3.72;;;;;;;19.91;57.85;101437.00;5088535;28;20083;-68
2022/06/27 02:12:18;;;;;;;5.18;3.47;;;;;;;19.90;58.00;101430.72;5092891;28;20257;-67
2022/06/27 02:14:49;;;;;;;5.60;3.05;;;;;;;19.87;57.99;101425.81;5091907;28;20051;-67
2022/06/27 02:17:17;;;;;;;6.82;3.38;;;;;;;19.89;58.08;101429.09;5092721;28;20509;-67
2022/06/27 02:19:46;;;;;;;5.53;3.47;;;;;;;19.85;58.00;101419.81;5100650;28;20080;-68
2022/06/27 02:22:14;;;;;;;6.82;3.25;;;;;;;19.89;57.83;101417.34;5098372;28;20048;-68
2022/06/27 02:24:43;;;;;;;6.75;3.58;;;;;;;19.88;58.02;101419.25;5100495;28;20044;-67
2022/06/27 02:27:12;;;;;;;6.82;3.25;;;;;;;19.89;57.87;101422.81;5101162;28;20267;-67
2022/06/27 02:29:39;;;;;;;6.88;3.83;;;;;;;19.89;58.02;101418.16;5098860;28;21242;-67
2022/06/27 02:32:10;;;;;;;4.60;3.22;;;;;;;19.88;57.98;101422.00;5099136;28;20072;-68
2022/06/27 02:34:38;;;;;;;5.50;3.70;;;;;;;19.89;58.04;101431.81;5096969;28;20248;-67
2022/06/27 02:37:07;;;;;;;5.72;3.20;;;;;;;19.88;57.91;101429.34;5100762;28;20474;-68
2022/06/27 02:39:37;;;;;;;5.68;3.17;;;;;;;19.85;58.12;101416.25;5098720;28;20161;-68
2022/06/27 02:42:09;;;;;;;5.10;3.42;;;;;;;19.87;57.83;101411.34;5090739;28;20064;-68
2022/06/27 02:44:38;;;;;;;6.03;3.58;;;;;;;19.87;58.03;101408.63;5101726;28;20043;-68
2022/06/27 02:47:06;;;;;;;5.40;3.00;;;;;;;19.86;58.05;101399.63;5101461;28;20040;-67
2022/06/27 02:49:36;;;;;;;5.65;3.70;;;;;;;19.81;58.04;101394.97;5099610;28;20035;-67
2022/06/27 02:52:11;;;;;;;5.88;3.70;;;;;;;19.83;58.23;101398.25;5094637;28;20074;-67
2022/06/27 02:54:42;;;;;;;6.72;3.95;;;;;;;19.83;58.00;101397.44;5092184;28;20047;-67
2022/06/27 02:57:17;;;;;;;6.38;3.42;;;;;;;19.75;58.35;101373.41;5098647;28;20056;-67
2022/06/27 02:59:49;;;;;;;7.30;3.78;;;;;;;19.81;58.28;101380.50;5097414;28;20535;-67
2022/06/27 03:02:18;;;;;;;10.75;3.65;;;;;;;19.78;58.46;101379.13;5099864;28;20040;-67
2022/06/27 03:04:48;;;;;;;6.05;3.53;;;;;;;19.78;58.33;101375.59;5098855;28;20063;-68
2022/06/27 03:07:16;;;;;;;6.20;3.80;;;;;;;19.76;58.31;101375.03;5095844;28;20040;-67
2022/06/27 03:09:43;;;;;;;4.13;3.10;;;;;;;19.75;58.50;101373.41;5092602;28;20057;-68
2022/06/27 03:12:11;;;;;;;6.68;3.45;;;;;;;19.74;58.79;101369.88;5098984;28;20409;-68
2022/06/27 03:14:39;;;;;;;6.70;3.72;;;;;;;19.73;58.56;101368.22;5094218;28;20044;-68
2022/06/27 03:17:07;;;;;;;5.00;3.05;;;;;;;19.72;58.69;101361.13;5098438;28;20520;-67
2022/06/27 03:19:34;;;;;;;5.50;3.65;;;;;;;19.70;58.87;101367.94;5101854;28;20138;-68
2022/06/27 03:22:04;;;;;;;5.32;3.42;;;;;;;19.70;58.88;101370.66;5090742;28;20083;-68
2022/06/27 03:24:31;;;;;;;7.82;3.20;;;;;;;19.68;58.72;101373.66;5105241;28;20052;-67
2022/06/27 03:27:00;;;;;;;6.53;3.38;;;;;;;19.68;59.02;101370.13;5095968;28;20111;-67
2022/06/27 03:29:27;;;;;;;6.03;3.60;;;;;;;19.67;58.79;101368.47;5103322;28;20450;-68
2022/06/27 03:31:55;;;;;;;5.93;3.50;;;;;;;19.66;58.81;101372.28;5102561;28;20040;-68
2022/06/27 03:34:23;;;;;;;5.82;3.40;;;;;;;19.64;59.08;101372.56;5087231;28;20048;-68
2022/06/27 03:36:51;;;;;;;5.50;3.63;;;;;;;19.64;59.16;101369.03;5103732;28;20082;-68
2022/06/27 03:39:20;;;;;;;5.32;3.38;;;;;;;19.62;58.86;101368.47;5102571;28;20127;-68
2022/06/27 03:41:48;;;;;;;10.50;3.58;;;;;;;19.61;59.05;101362.19;5100758;28;20109;-68
2022/06/27 03:44:16;;;;;;;4.78;3.33;;;;;;;19.59;58.99;101361.66;5099673;28;20094;-68
2022/06/27 03:46:44;;;;;;;8.70;3.33;;;;;;;19.60;58.90;101367.91;5102234;28;20521;-68
2022/06/27 03:51:57;;;;;;;8.70;3.08;;;;;;;19.58;58.92;101381.81;5099466;28;20052;-68
2022/06/27 03:54:26;;;;;;;6.13;3.05;;;;;;;19.58;59.00;101378.28;5097817;28;20048;-68
2022/06/27 03:56:56;;;;;;;6.20;3.58;;;;;;;19.57;58.93;101374.72;5100708;28;20048;-68
2022/06/27 03:59:23;;;;;;;5.80;3.40;;;;;;;19.56;58.92;101384.00;5086927;28;20044;-68
2022/06/27 04:01:51;;;;;;;5.97;3.00;;;;;;;19.57;59.05;101403.91;5096793;28;20071;-68
2022/06/27 04:04:19;;;;;;;5.25;3.47;;;;;;;19.55;59.11;101401.44;5101784;28;20108;-68
2022/06/27 04:06:47;;;;;;;5.07;3.05;;;;;;;19.55;59.21;101390.53;5105247;28;20054;-68
2022/06/27 04:09:14;;;;;;;4.57;3.40;;;;;;;19.53;59.19;101402.81;5102496;28;20048;-68
2022/06/27 04:11:43;;;;;;;5.25;3.45;;;;;;;19.53;58.84;101400.06;5097939;28;20055;-68
2022/06/27 04:14:11;;;;;;;5.68;3.67;;;;;;;19.54;59.19;101388.09;5103500;28;20036;-68
2022/06/27 04:16:39;;;;;;;7.38;3.17;;;;;;;19.53;59.05;101381.81;5091404;28;20064;-68
2022/06/27 04:19:07;;;;;;;4.97;3.50;;;;;;;19.53;59.12;101372.81;5097867;28;20315;-68
2022/06/27 04:21:34;;;;;;;6.07;3.35;;;;;;;19.53;59.25;101367.34;5105771;28;20052;-68
2022/06/27 04:24:03;;;;;;;7.45;3.47;;;;;;;19.39;58.97;101337.03;5096973;28;20036;-68
2022/06/27 04:26:30;;;;;;;6.40;3.28;;;;;;;19.47;59.01;101353.69;5095305;28;20138;-68
2022/06/27 04:28:59;;;;;;;4.60;3.25;;;;;;;19.52;59.15;101352.09;5101998;28;20059;-68
2022/06/27 04:31:27;;;;;;;6.45;3.42;;;;;;;19.51;59.25;101353.97;5099278;28;20049;-68
2022/06/27 04:33:55;;;;;;;5.63;3.35;;;;;;;19.48;59.38;101338.97;5102128;28;20484;-68
2022/06/27 04:36:23;;;;;;;6.40;3.45;;;;;;;19.50;59.41;101342.25;5093094;28;20468;-68
2022/06/27 04:38:51;;;;;;;5.97;3.40;;;;;;;19.49;59.18;101340.59;5104743;28;20048;-68
2022/06/27 04:41:20;;;;;;;4.28;3.20;;;;;;;19.49;59.22;101334.31;5103578;28;20052;-68
2022/06/27 04:43:48;;;;;;;7.50;3.22;;;;;;;19.47;59.34;101334.59;5101008;28;20122;-68
2022/06/27 04:46:18;;;;;;;5.88;3.45;;;;;;;19.47;59.25;101331.88;5095668;28;20052;-68
2022/06/27 04:48:46;;;;;;;4.05;2.95;;;;;;;19.47;59.59;101331.06;5107270;28;20181;-67
2022/06/27 04:51:14;;;;;;;8.77;3.90;;;;;;;19.44;59.35;101345.22;5098358;28;20044;-68
2022/06/27 04:53:43;;;;;;;10.20;3.95;;;;;;;19.43;59.65;101346.31;5098360;28;20217;-68
2022/06/27 04:56:11;;;;;;;5.88;3.70;;;;;;;19.44;59.64;101348.75;5097683;28;20067;-68
2022/06/27 04:58:39;;;;;;;6.35;3.72;;;;;;;19.44;59.77;101343.31;5103636;28;20465;-67
2022/06/27 05:01:07;;;;;;;5.55;3.60;;;;;;;19.44;59.68;101346.03;5100550;28;20047;-67
2022/06/27 05:03:36;;;;;;;4.55;2.90;;;;;;;19.44;59.66;101342.50;5103276;28;20040;-67
2022/06/27 05:06:04;;;;;;;5.28;3.17;;;;;;;19.42;59.63;101320.97;5097361;28;20118;-68
2022/06/27 05:08:32;;;;;;;6.63;3.67;;;;;;;19.41;59.94;101313.88;5099001;28;20052;-68
2022/06/27 05:11:00;;;;;;;4.70;3.50;;;;;;;19.42;60.06;101314.69;5101424;28;20068;-68
2022/06/27 05:13:28;;;;;;;7.45;4.18;;;;;;;19.40;60.13;101314.94;5100797;28;20044;-68
2022/06/27 05:15:55;;;;;;;4.97;3.50;;;;;;;19.41;59.87;101318.50;5104425;28;20044;-68
2022/06/27 05:18:23;;;;;;;6.10;3.85;;;;;;;19.40;59.88;101322.31;5101846;28;20051;-68
2022/06/27 05:20:52;;;;;;;4.47;3.40;;;;;;;19.40;59.92;101333.22;5103518;28;20351;-68
2022/06/27 05:23:20;;;;;;;6.60;3.28;;;;;;;19.39;59.92;101340.56;5099158;28;20075;-68
2022/06/27 05:25:48;;;;;;;8.82;3.63;;;;;;;19.36;59.90;101329.38;5100400;28;20059;-67
2022/06/27 05:28:16;;;;;;;7.22;3.78;;;;;;;19.40;59.90;101330.50;5103169;28;20071;-69
2022/06/27 05:30:44;;;;;;;5.20;3.38;;;;;;;19.39;59.90;101335.13;5102930;28;20452;-68
2022/06/27 05:33:12;;;;;;;5.18;3.30;;;;;;;19.40;59.76;101361.28;5098154;28;20044;-70
2022/06/27 05:35:40;;;;;;;5.05;3.40;;;;;;;19.41;60.04;101397.56;5100417;28;20063;-68
2022/06/27 05:38:09;;;;;;;8.27;3.53;;;;;;;19.40;59.93;101404.09;5099211;28;20040;-67
2022/06/27 05:40:37;;;;;;;4.93;3.90;;;;;;;19.40;59.89;101421.25;5102758;28;20056;-68
2022/06/27 05:43:05;;;;;;;5.75;3.40;;;;;;;19.39;59.89;101416.06;5087231;28;20075;-66
2022/06/27 05:45:33;;;;;;;7.55;3.95;;;;;;;19.39;60.00;101421.53;5102063;28;20043;-66
2022/06/27 05:48:03;;;;;;;8.85;3.72;;;;;;;19.40;60.07;101440.34;5101561;28;20048;-66
2022/06/27 05:50:31;;;;;;;6.60;3.72;;;;;;;19.40;60.14;101450.44;5098491;28;20500;-67
2022/06/27 05:53:00;;;;;;;5.43;3.40;;;;;;;19.39;60.22;101457.78;5103669;28;21009;-66
2022/06/27 05:55:34;;;;;;;6.50;3.78;;;;;;;19.39;60.07;101451.50;5099071;28;20056;-64
2022/06/27 05:58:02;;;;;;;5.00;3.47;;;;;;;19.39;60.06;101451.50;4743641;28;10000220;-67
2022/06/27 06:00:30;;;;;;;8.50;4.20;;;;;;;19.25;60.00;101431.28;5094107;28;20048;-66
2022/06/27 06:02:59;;;;;;;5.75;3.78;;;;;;;19.34;60.23;101435.97;5094871;28;20052;-67
2022/06/27 06:05:28;;;;;;;6.18;3.50;;;;;;;19.01;60.38;101385.41;5096310;28;20051;-65
2022/06/27 06:08:00;;;;;;;6.93;4.18;;;;;;;19.38;60.07;101433.53;5096958;28;20105;-66
2022/06/27 06:10:28;;;;;;;7.40;4.15;;;;;;;19.39;60.20;101440.63;5093019;28;20071;-67
2022/06/27 06:12:58;;;;;;;7.57;3.50;;;;;;;19.38;60.02;101430.78;5092691;28;20079;-66
2022/06/27 06:15:26;;;;;;;5.82;3.88;;;;;;;19.34;60.05;101429.69;5095880;28;20398;-67
2022/06/27 06:17:54;;;;;;;7.55;3.75;;;;;;;19.38;60.06;101437.06;5096713;28;20156;-67
2022/06/27 06:20:22;;;;;;;5.50;3.58;;;;;;;19.38;59.92;101450.69;5096569;28;20063;-67
2022/06/27 06:22:50;;;;;;;5.60;3.55;;;;;;;19.39;59.69;101459.69;5099420;28;20056;-68
2022/06/27 06:25:17;;;;;;;6.10;3.80;;;;;;;19.32;59.70;101461.84;5100169;28;20048;-68
2022/06/27 06:27:45;;;;;;;8.88;3.63;;;;;;;19.41;59.93;101477.44;5096495;28;20066;-68
2022/06/27 06:30:15;;;;;;;6.22;3.78;;;;;;;19.42;59.93;101476.34;5099204;28;20117;-68
2022/06/27 06:32:43;;;;;;;6.47;3.53;;;;;;;19.43;59.86;101472.53;5089157;28;20061;-68
2022/06/27 06:35:11;;;;;;;5.93;4.07;;;;;;;19.44;59.86;101467.91;5096664;28;20048;-67
2022/06/27 06:37:40;;;;;;;4.63;3.17;;;;;;;19.45;59.97;101458.63;5100958;28;20493;-67
2022/06/27 06:40:09;;;;;;;5.65;3.65;;;;;;;19.44;59.74;101443.34;5100036;28;20062;-66
2022/06/27 06:42:37;;;;;;;7.43;4.22;;;;;;;19.40;60.12;101425.91;5098658;28;20466;-67
2022/06/27 06:45:06;;;;;;;6.30;3.65;;;;;;;19.43;59.95;101420.72;5102085;28;20071;-67
2022/06/27 06:47:42;;;;;;;6.18;3.67;;;;;;;19.44;59.95;101406.00;5093638;28;20058;-67
2022/06/27 06:50:13;;;;;;;6.57;4.28;;;;;;;19.43;59.72;101412.56;5086561;28;20097;-67
2022/06/27 06:52:42;;;;;;;6.55;3.83;;;;;;;19.43;59.87;101403.56;5099085;28;20074;-66
2022/06/27 06:55:11;;;;;;;5.60;4.03;;;;;;;19.43;59.77;101401.66;5101192;28;20040;-68
2022/06/27 06:57:39;;;;;;;9.45;4.07;;;;;;;19.29;60.12;101375.97;5092127;28;20051;-67
2022/06/27 07:00:09;;;;;;;7.22;4.38;;;;;;;19.36;60.15;101395.63;5098121;28;20140;-68
2022/06/27 07:02:39;;;;;;;10.80;4.40;;;;;;;19.47;59.99;101412.84;5104462;28;20089;-67
2022/06/27 07:05:11;;;;;;;6.53;4.05;;;;;;;19.52;59.99;101409.34;5100947;28;20052;-66
2022/06/27 07:07:41;;;;;;;12.13;4.70;;;;;;;19.55;60.02;101408.81;5096059;28;20052;-67
2022/06/27 07:10:11;;;;;;;7.07;4.40;;;;;;;19.55;59.91;101389.72;5100369;28;20044;-67
2022/06/27 07:12:39;;;;;;;7.93;4.05;;;;;;;19.53;59.94;101379.09;5101695;28;20052;-67
2022/06/27 07:15:09;;;;;;;12.32;4.40;;;;;;;19.54;59.78;101404.44;5099225;28;20083;-68
2022/06/27 07:17:43;;;;;;;9.93;4.10;;;;;;;19.57;59.60;101431.16;5103616;28;20071;-68
2022/06/27 07:20:12;;;;;;;8.82;4.07;;;;;;;19.58;59.53;101432.81;5103504;28;20044;-68
2022/06/27 07:22:41;;;;;;;5.55;4.10;;;;;;;19.56;59.32;101424.09;5094203;28;20531;-68
2022/06/27 07:25:10;;;;;;;6.22;4.05;;;;;;;19.61;59.43;101437.72;5099395;28;20040;-67
2022/06/27 07:27:39;;;;;;;6.97;4.10;;;;;;;19.70;59.48;101447.03;5101782;28;20048;-68
2022/06/27 07:30:10;;;;;;;9.80;5.03;;;;;;;19.73;59.20;101441.03;5103361;28;20466;-68
2022/06/27 07:32:39;;;;;;;9.30;4.38;;;;;;;19.75;59.46;101444.31;5096506;28;20036;-64
2022/06/27 07:35:11;;;;;;;8.05;5.45;;;;;;;19.76;60.16;101430.41;5101619;28;20036;-66
2022/06/27 07:37:47;;;;;;;9.88;4.55;;;;;;;19.74;59.83;101429.03;5102852;28;20318;-65
2022/06/27 07:40:17;;;;;;;10.77;4.85;;;;;;;19.72;59.57;101445.69;5097867;28;20446;-66
2022/06/27 07:42:48;;;;;;;10.95;4.70;;;;;;;19.73;59.55;101438.31;5104255;28;20051;-67
2022/06/27 07:45:21;;;;;;;7.57;4.50;;;;;;;19.73;59.92;101439.13;5097450;28;20074;-63
2022/06/27 07:47:50;;;;;;;8.27;4.05;;;;;;;19.74;60.06;101456.31;5102551;28;20097;-65
2022/06/27 07:53:13;;;;;;;8.32;4.40;;;;;;;19.72;60.10;101464.78;5082140;28;20118;-65
2022/06/27 07:55:42;;;;;;;6.22;3.78;;;;;;;19.71;59.65;101468.59;5104709;28;20059;-65
2022/06/27 07:58:14;;;;;;;9.10;3.65;;;;;;;19.73;60.08;101473.78;5099205;28;20044;-65
2022/06/27 08:00:43;;;;;;;7.53;4.40;;;;;;;19.63;60.22;101473.72;5099473;28;20120;-64
2022/06/27 08:06:00;;;;;;;6.70;4.10;;;;;;;19.70;60.11;101474.31;5102120;28;20056;-65
2022/06/27 08:08:28;;;;;;;6.07;3.60;;;;;;;19.69;60.12;101481.66;5103982;28;20497;-65
2022/06/27 08:10:56;;;;;;;6.25;3.35;;;;;;;19.69;60.11;101486.31;5103188;28;20052;-65
2022/06/27 08:13:26;;;;;;;6.07;4.40;;;;;;;19.69;60.35;101481.66;5098158;28;20123;-65
2022/06/27 08:15:55;;;;;;;8.50;4.03;;;;;;;19.68;60.18;101466.38;5102682;28;20040;-65
2022/06/27 08:18:23;;;;;;;5.65;3.63;;;;;;;19.71;60.38;101481.41;5112602;28;20048;-65
2022/06/27 08:20:52;;;;;;;7.80;4.45;;;;;;;19.72;60.06;101480.31;5101668;28;20099;-65
2022/06/27 08:23:21;;;;;;;7.45;3.30;;;;;;;19.71;60.12;101478.66;5099516;28;20047;-65
2022/06/27 08:25:48;;;;;;;5.30;3.53;;;;;;;19.71;60.12;101489.59;5103289;28;20109;-65
2022/06/27 08:28:16;;;;;;;8.10;3.05;;;;;;;19.72;59.98;101499.41;5101709;28;20055;-65
2022/06/27 08:30:44;;;;;;;8.90;3.78;;;;;;;19.71;60.12;101497.75;5100590;28;20091;-65
2022/06/27 08:33:13;;;;;;;8.23;3.72;;;;;;;19.70;60.04;101498.84;5103403;28;20044;-65
2022/06/27 08:35:44;;;;;;;8.43;3.40;;;;;;;19.71;60.08;101514.94;5098722;28;20501;-65
2022/06/27 08:38:12;;;;;;;6.85;3.30;;;;;;;19.72;60.10;101510.31;5106991;28;20045;-65
2022/06/27 08:40:41;;;;;;;7.10;3.75;;;;;;;19.72;60.19;101504.84;5094008;28;20440;-66
2022/06/27 08:43:10;;;;;;;5.45;3.35;;;;;;;19.72;59.97;101510.31;5099112;28;20091;-65
2022/06/27 08:45:39;;;;;;;5.22;3.35;;;;;;;19.71;59.94;101514.13;5099932;28;20078;-65
2022/06/27 08:48:08;;;;;;;5.43;3.15;;;;;;;19.72;60.10;101510.31;5098193;28;20067;-65
2022/06/27 08:50:36;;;;;;;4.93;3.03;;;;;;;19.71;60.16;101505.94;5102677;28;20489;-65
2022/06/27 08:53:05;;;;;;;6.72;3.55;;;;;;;19.69;60.40;101510.84;5103530;28;20434;-65
2022/06/27 08:55:34;;;;;;;6.05;3.03;;;;;;;19.70;60.02;101509.75;5098102;28;20047;-65
2022/06/27 08:58:06;;;;;;;5.20;2.95;;;;;;;19.71;60.07;101514.94;5098709;28;20121;-65
2022/06/27 09:00:37;;;;;;;5.70;3.42;;;;;;;19.71;60.09;101523.13;5098131;28;20105;-65
2022/06/27 09:03:06;;;;;;;5.40;2.70;;;;;;;19.72;59.89;101537.59;5106390;28;21438;-65
2022/06/27 09:05:36;;;;;;;4.50;2.72;;;;;;;19.67;60.12;101530.19;5102882;28;20044;-65
2022/06/27 09:08:05;;;;;;;4.82;3.38;;;;;;;19.72;60.04;101535.69;5102936;28;20044;-65
2022/06/27 09:10:35;;;;;;;5.38;3.05;;;;;;;19.74;60.06;101535.41;5097876;28;20044;-65
2022/06/27 09:13:08;;;;;;;4.85;2.75;;;;;;;19.74;60.33;101527.22;5102023;28;20484;-65
2022/06/27 09:15:49;;;;;;;7.55;3.25;;;;;;;19.72;60.02;101511.13;5105006;28;20063;-65
2022/06/27 09:18:20;;;;;;;5.60;2.72;;;;;;;19.76;59.93;101516.88;5105307;28;20104;-65
2022/06/27 09:20:50;;;;;;;4.47;3.05;;;;;;;19.77;60.12;101504.88;5108155;28;20055;-65
2022/06/27 09:23:40;;;;;;;4.85;3.10;;;;;;;19.77;60.35;101521.25;5096693;28;20047;-65
2022/06/27 09:26:15;;;;;;;7.22;3.92;;;;;;;19.78;60.38;101514.69;5098594;28;20076;-65
2022/06/27 09:28:50;;;;;;;5.60;3.65;;;;;;;19.79;60.23;101524.53;5101802;28;20084;-65
2022/06/27 09:31:33;;;;;;;5.85;3.20;;;;;;;19.79;59.97;101529.97;5098754;28;20109;-65
2022/06/27 09:34:08;;;;;;;4.18;2.90;;;;;;;19.79;59.98;101522.63;5108410;28;20469;-65
2022/06/27 09:36:39;;;;;;;4.03;2.78;;;;;;;19.81;59.82;101520.44;5102510;28;20059;-65
2022/06/27 09:39:11;;;;;;;5.20;2.83;;;;;;;19.81;59.82;101517.72;5096254;28;20078;-65
2022/06/27 09:41:41;;;;;;;6.03;2.85;;;;;;;19.82;59.91;101513.09;5101514;28;20103;-65
2022/06/27 09:44:14;;;;;;;5.18;2.70;;;;;;;19.79;59.89;101503.53;5101185;28;20055;-65
2022/06/27 09:46:50;;;;;;;5.35;2.40;;;;;;;19.85;59.91;101515.28;5099189;28;20039;-65
2022/06/27 09:49:19;;;;;;;;;;;;;;;19.86;60.10;101519.66;5100036;28;20131;-65
2022/06/27 09:51:50;;;;;;;3.95;2.42;;;;;;;19.87;60.10;101513.09;5102409;28;19978;-64
2022/06/27 09:54:20;;;;;;;5.13;2.45;;;;;;;19.90;59.80;101519.94;5099983;28;20063;-65
2022/06/27 09:56:50;;;;;;;4.90;3.15;;;;;;;19.92;59.81;101509.56;5099181;28;20119;-65
2022/06/27 09:59:20;;;;;;;3.65;2.53;;;;;;;19.92;59.83;101509.56;5092529;28;20044;-65
2022/06/27 10:01:49;;;;;;;4.53;2.50;;;;;;;19.95;59.79;101511.75;5099065;28;20048;-63
2022/06/27 10:04:21;;;;;;;3.92;2.30;;;;;;;19.89;59.95;101497.28;5098851;28;20159;-64
2022/06/27 10:06:49;;;;;;;4.10;2.53;;;;;;;19.96;59.92;101506.03;5096377;28;20105;-64
2022/06/27 10:09:21;;;;;;;5.72;3.40;;;;;;;19.97;59.92;101495.94;5096489;28;20295;-65
2022/06/27 10:12:22;;;;;;;4.70;2.47;;;;;;;19.98;59.72;101497.59;5094951;28;20047;-65
2022/06/27 10:15:20;;;;;;;5.70;2.47;;;;;;;20.00;59.86;101498.94;5096942;28;20052;-65
2022/06/27 10:17:53;;;;;;;6.28;2.90;;;;;;;20.01;59.65;101506.06;5094889;28;20060;-65
2022/06/27 10:20:29;;;;;;;5.78;2.42;;;;;;;20.01;59.81;101499.78;5099783;28;20048;-65
2022/06/27 10:23:28;;;;;;;5.47;2.92;;;;;;;20.06;59.64;101497.88;5097021;28;20067;-65
2022/06/27 10:25:57;;;;;;;4.38;2.83;;;;;;;20.10;59.82;101501.72;5098121;28;20044;-65
2022/06/27 10:28:26;;;;;;;4.40;2.30;;;;;;;20.10;59.80;101490.78;5100562;28;20469;-64
2022/06/27 10:30:56;;;;;;;3.85;2.25;;;;;;;20.12;59.80;101493.25;5102142;28;20051;-68
2022/06/27 10:33:41;;;;;;;3.35;2.22;;;;;;;20.12;59.56;101502.25;5099460;28;20047;-71
2022/06/27 10:36:18;;;;;;;4.35;2.47;;;;;;;20.13;59.73;101501.16;5100849;28;20055;-65
2022/06/27 10:38:55;;;;;;;5.55;2.40;;;;;;;20.16;59.74;101502.53;5103987;28;20066;-65
2022/06/27 10:41:39;;;;;;;5.50;2.40;;;;;;;20.16;59.89;101502.53;5103878;28;20044;-65
2022/06/27 10:44:32;;;;;;;5.65;2.53;;;;;;;20.18;59.69;101514.00;4983662;28;10000458;-65
2022/06/27 10:47:04;;;;;;;4.15;2.10;;;;;;;20.18;59.71;101505.81;5097679;28;20264;-67
2022/06/27 10:49:34;;;;;;;3.97;2.30;;;;;;;20.20;59.45;101505.56;5101233;28;20074;-66
2022/06/27 10:52:24;;;;;;;4.32;2.67;;;;;;;20.24;59.65;101501.19;5099790;28;20059;-66
2022/06/27 10:54:53;;;;;;;5.05;2.42;;;;;;;20.28;59.66;101496.81;5095564;28;20064;-66
2022/06/27 10:57:42;;;;;;;7.53;2.00;;;;;;;20.34;59.35;101504.75;5096341;28;20385;-65
2022/06/27 11:00:12;;;;;;;3.50;2.13;;;;;;;20.31;59.44;101507.22;5099973;28;20286;-66
2022/06/27 11:02:42;;;;;;;4.38;2.45;;;;;;;20.30;59.58;101516.50;5099356;28;20170;-66
2022/06/27 11:05:13;;;;;;;4.43;2.20;;;;;;;20.31;59.46;101501.75;5102012;28;20435;-66
2022/06/27 11:07:41;;;;;;;3.78;2.00;;;;;;;20.31;59.54;101507.22;5100308;28;20492;-65
2022/06/27 11:10:10;;;;;;;5.55;2.40;;;;;;;20.27;59.52;101498.75;5101462;28;20055;-65
2022/06/27 11:12:38;;;;;;;6.65;2.15;;;;;;;20.33;59.26;101507.75;5098009;28;20076;-66
2022/06/27 11:15:11;;;;;;;5.05;2.08;;;;;;;20.32;59.32;101506.94;5100500;28;20051;-66
2022/06/27 11:17:42;;;;;;;3.08;1.77;;;;;;;20.35;59.30;101505.56;5100072;28;20562;-66
2022/06/27 11:20:21;;;;;;;6.32;1.80;;;;;;;20.34;59.29;101510.22;5098761;28;20056;-65
2022/06/27 11:23:08;;;;;;;3.53;2.05;;;;;;;20.37;59.28;101511.59;5100647;28;20060;-66
2022/06/27 11:25:39;;;;;;;4.05;2.00;;;;;;;20.43;59.37;101524.19;5097369;28;20556;-66
2022/06/27 11:33:42;;;;;;;4.82;2.20;;;;;;;20.44;59.16;101514.91;5101584;28;20056;-66
2022/06/27 11:36:12;;;;;;;6.47;2.30;;;;;;;20.44;58.88;101521.19;5103241;28;20100;-66
2022/06/27 11:38:46;;;;;;;10.32;2.50;;;;;;;20.44;58.99;101512.16;5095255;28;20049;-66
2022/06/27 11:41:15;;;;;;;5.57;1.98;;;;;;;20.47;58.98;101519.81;5103911;28;20060;-66
2022/06/27 11:43:57;;;;;;;6.20;2.00;;;;;;;20.46;58.80;101529.09;5095656;28;20075;-66
2022/06/27 11:46:30;;;;;;;7.07;2.63;;;;;;;20.54;58.58;101534.03;5102420;28;20048;-66
2022/06/27 11:49:03;;;;;;;3.90;2.13;;;;;;;20.52;58.50;101524.47;5100834;28;20051;-66
2022/06/27 11:51:34;;;;;;;5.82;2.17;;;;;;;20.57;58.55;101530.75;5100502;28;20072;-66